Historique des mesures à Cassis (13260), France
Quotidien Résumé Mars 26, 2017 Unités:  Métrique    US   Métrique/US
« Précédent (Jour)
Suivant (Jour) »
Quotidien Hebdomadaire Mensuel Annuel Période au choix
  Maximum: Minimum: Moyenne:
Température: TemperatureC °C 10.2 °C 13.4 °C
Point de rosée: DewpointC °C 6.1 °C 8.7 °C
Humidité: Humidity % 62 % 70 %
Vitesse du vent: 0 km/h 0 km/h 3.5 km/h
Rafales: 0 km/h - -
Vent:- - SSW
Pression: PressurehPa hPa 1014.4 hPa -
Précipitations: 0.0 mm    
Historical Graphs
 
 
Mesures pour : Mars 26, 2017
Heure Temperature Point de rosée Pression Vent Vitesse du vent Rafales Humidité Pluie (par heure) Conditions
TemperatureC °C DewpointC °C PressurehPa hPa Calm     Humidity % HourlyPrecipMM mm SoftwareType W/m2
00:11 11.4 °C 7.1 °C 1017.2 hPa NW 3.4 km/h 3.4 km/h 75 % 0.0 mm open2300-1.11 W/m2
01:10 10.7 °C 6.4 °C 1016.8 hPa Calm   2.3 km/h 75 % 0.0 mm open2300-1.11 W/m2
03:11 10.2 °C 6.1 °C 1016.8 hPa NW 4.7 km/h 4.7 km/h 76 % 0.0 mm open2300-1.11 W/m2
04:11 10.5 °C 6.6 °C 1016.5 hPa Calm     77 % 0.0 mm open2300-1.11 W/m2
05:11 10.6 °C 6.7 °C 1015.8 hPa Calm     77 % 0.0 mm open2300-1.11 W/m2
06:11 10.8 °C 7.1 °C 1015.8 hPa NNW 5.1 km/h 5.1 km/h 78 % 0.0 mm open2300-1.11 W/m2
07:11 10.8 °C 7.1 °C 1015.8 hPa NNE 2.9 km/h 3.4 km/h 78 % 0.0 mm open2300-1.11 W/m2
08:11 10.4 °C 6.9 °C 1015.8 hPa NW 6.9 km/h 6.9 km/h 79 % 0.0 mm open2300-1.11 W/m2
09:11 11.8 °C 8.1 °C 1016.1 hPa Calm   3.4 km/h 78 % 0.0 mm open2300-1.11 W/m2
10:11 13.6 °C 9.6 °C 1016.5 hPa Calm   3.4 km/h 77 % 0.0 mm open2300-1.11 W/m2
11:11 14.9 °C 10.7 °C 1017.2 hPa WSW 9.3 km/h 9.3 km/h 76 % 0.0 mm open2300-1.11 W/m2
12:11 17.6 °C 12.3 °C 1017.5 hPa South 4.7 km/h 9.3 km/h 71 % 0.0 mm open2300-1.11 W/m2
13:11 17.9 °C 12.2 °C 1016.8 hPa ESE 2.9 km/h 9.8 km/h 69 % 0.0 mm open2300-1.11 W/m2
14:11 18.3 °C 12.3 °C 1016.8 hPa South 7.6 km/h 7.6 km/h 68 % 0.0 mm open2300-1.11 W/m2
15:11 18.2 °C 10.8 °C 1016.1 hPa West 8 km/h 9.3 km/h 62 % 0.0 mm open2300-1.11 W/m2
16:11 17.8 °C 11.1 °C 1015.5 hPa SSW 10.3 km/h 10.3 km/h 65 % 0.0 mm open2300-1.11 W/m2
17:11 17.4 °C 10.7 °C 1014.8 hPa SSW 8 km/h 10.9 km/h 65 % 0.0 mm open2300-1.11 W/m2
18:11 17.0 °C 10.8 °C 1014.4 hPa SSW 5.6 km/h 5.6 km/h 67 % 0.0 mm open2300-1.11 W/m2
19:11 15.9 °C 10.3 °C 1014.8 hPa Calm   10.3 km/h 69 % 0.0 mm open2300-1.11 W/m2
20:11 15.0 °C 10.0 °C 1015.5 hPa Calm     72 % 0.0 mm open2300-1.11 W/m2
21:11 13.9 °C 9.1 °C 1015.5 hPa Calm   6.4 km/h 73 % 0.0 mm open2300-1.11 W/m2
22:11 13.2 °C 8.8 °C 1015.5 hPa Calm     75 % 0.0 mm open2300-1.11 W/m2
23:11 12.6 °C 8.7 °C 1015.8 hPa North 4.2 km/h 4.2 km/h 77 % 0.0 mm open2300-1.11 W/m2
Observations météo à CASSIS
WU-History script by Weather Underground - 1 mb